Time;durP1;ratioP1;P1;durP2;ratioP2;P2;SDS_P1;SDS_P2;PMS_P1;PMS_P2;Temp;Humidity;BMP_temperature;BMP_pressure;BME280_temperature;BME280_humidity;BME280_pressure;Samples;Min_cycle;Max_cycle;Signal;HPM_P1;HPM_P2
2023/01/05 00:01:46;;;;;;;24.38;6.55;;;;;;;9.94;100.00;101470.66;5014284;28;20088;-59
2023/01/05 00:04:12;;;;;;;32.30;7.40;;;;;;;9.66;100.00;101427.41;4996819;28;20038;-59
2023/01/05 00:06:38;;;;;;;30.23;6.75;;;;;;;9.54;100.00;101424.09;5014660;28;20044;-57
2023/01/05 00:09:05;;;;;;;33.47;6.97;;;;;;;9.51;100.00;101431.19;4996908;28;20034;-58
2023/01/05 00:22:49;;;;;;;36.95;7.13;;;;;;;9.50;100.00;101430.31;5014055;28;20052;-63
2023/01/05 00:25:20;;;;;;;33.75;6.55;;;;;;;9.76;100.00;101476.25;4996609;28;20092;-60
2023/01/05 00:27:49;;;;;;;36.58;7.65;;;;;;;9.70;100.00;101476.38;5014202;28;20087;-63
2023/01/05 00:30:17;;;;;;;37.45;6.90;;;;;;;9.26;100.00;101395.72;5013858;28;20025;-61
2023/01/05 00:32:43;;;;;;;32.17;6.82;;;;;;;9.51;100.00;101445.19;4995974;28;20046;-61
2023/01/05 00:35:09;;;;;;;32.92;7.07;;;;;;;9.45;100.00;101426.91;5013837;28;20530;-59
2023/01/05 00:37:37;;;;;;;28.42;6.50;;;;;;;9.35;100.00;101406.94;4996346;28;20034;-61
2023/01/05 00:40:06;;;;;;;26.83;5.97;;;;;;;9.72;100.00;101478.06;4996256;28;20141;-59
2023/01/05 00:42:31;;;;;;;28.63;7.35;;;;;;;9.68;100.00;101486.94;5013803;28;20042;-60
2023/01/05 00:44:57;;;;;;;30.90;7.03;;;;;;;9.36;100.00;101445.47;4996419;28;20060;-60
2023/01/05 00:47:22;;;;;;;32.05;7.00;;;;;;;9.65;100.00;101479.09;5013970;28;20462;-62
2023/01/05 00:49:47;;;;;;;23.98;5.43;;;;;;;9.31;100.00;101418.41;5012876;28;20489;-62
2023/01/05 00:52:13;;;;;;;33.38;8.20;;;;;;;9.72;100.00;101503.53;5013648;28;20405;-57
2023/01/05 00:54:38;;;;;;;35.92;7.53;;;;;;;9.39;100.00;101436.66;5012122;28;20034;-59
2023/01/05 00:57:05;;;;;;;35.47;8.30;;;;;;;9.47;100.00;101454.03;5013512;28;20041;-60
2023/01/05 00:59:31;;;;;;;37.13;8.52;;;;;;;9.74;100.00;101509.63;5012350;28;20415;-61
2023/01/05 01:01:56;;;;;;;32.10;7.57;;;;;;;9.67;100.00;101460.66;4995447;28;20096;-63
2023/01/05 01:04:22;;;;;;;35.65;7.40;;;;;;;9.78;100.00;101512.16;5013029;28;20400;-61
2023/01/05 01:06:48;;;;;;;32.65;7.25;;;;;;;9.71;100.00;101499.16;5013389;28;20536;-61
2023/01/05 01:09:13;;;;;;;35.33;7.13;;;;;;;9.45;100.00;101447.94;4995777;28;20500;-61
2023/01/05 01:11:39;;;;;;;37.75;7.93;;;;;;;9.39;100.00;101442.78;4995578;28;20037;-61
2023/01/05 01:14:06;;;;;;;37.10;7.55;;;;;;;9.41;100.00;101446.25;5011855;28;20061;-60
2023/01/05 01:16:32;;;;;;;32.83;7.50;;;;;;;9.86;100.00;101536.56;5013148;28;20111;-59
2023/01/05 01:18:57;;;;;;;33.10;7.63;;;;;;;9.41;100.00;101438.38;5013088;28;20056;-59
2023/01/05 01:21:23;;;;;;;26.77;6.53;;;;;;;9.80;100.00;101517.38;5012983;28;20029;-62
2023/01/05 01:23:48;;;;;;;29.15;6.97;;;;;;;9.87;100.00;101522.50;5013011;28;20037;-60
2023/01/05 01:26:13;;;;;;;29.88;6.50;;;;;;;9.80;100.00;101504.25;5013069;28;20355;-61
2023/01/05 01:28:39;;;;;;;31.27;7.82;;;;;;;9.67;100.00;101514.09;5012995;28;20034;-61
2023/01/05 01:31:05;;;;;;;30.35;7.32;;;;;;;9.46;100.00;101470.66;5011163;28;20044;-62
2023/01/05 01:33:31;;;;;;;26.83;6.18;;;;;;;9.66;100.00;101517.63;5012568;28;20026;-59
2023/01/05 01:35:57;;;;;;;36.85;7.97;;;;;;;9.43;100.00;101483.88;4994989;28;20477;-61
2023/01/05 01:38:23;;;;;;;33.75;7.45;;;;;;;9.51;100.00;101502.16;5012821;28;20040;-60
2023/01/05 01:40:49;;;;;;;37.67;7.40;;;;;;;9.69;100.00;101543.84;4994768;28;20443;-59
2023/01/05 01:43:35;;;;;;;27.05;6.35;;;;;;;9.68;100.00;101565.81;4995133;28;20038;-61
2023/01/05 01:46:01;;;;;;;40.88;8.75;;;;;;;9.63;100.00;101550.09;5012185;28;20044;-62
2023/01/05 01:48:26;;;;;;;25.50;7.85;;;;;;;9.59;100.00;101545.78;5012183;28;20484;-60
2023/01/05 01:50:53;;;;;;;38.75;7.80;;;;;;;9.19;100.00;101486.06;5012848;28;20560;-59
2023/01/05 01:53:31;;;;;;;26.85;6.78;;;;;;;9.59;100.00;101544.94;5012631;28;20029;-60
2023/01/05 01:55:59;;;;;;;35.40;6.82;;;;;;;9.22;100.00;101497.38;4994664;28;20389;-58
2023/01/05 01:58:27;;;;;;;31.58;7.10;;;;;;;9.20;100.00;101486.00;5012194;28;20037;-62
2023/01/05 02:00:53;;;;;;;31.48;7.20;;;;;;;9.14;100.00;101499.25;4995134;28;20100;-61
2023/01/05 02:03:18;;;;;;;28.52;6.60;;;;;;;9.56;100.00;101566.00;4994662;28;20474;-61
2023/01/05 02:05:43;;;;;;;33.35;6.78;;;;;;;9.23;100.00;101503.47;5012236;28;20040;-59
2023/01/05 02:08:13;;;;;;;29.75;5.95;;;;;;;9.29;100.00;101509.50;5012080;28;20057;-61
2023/01/05 02:11:12;;;;;;;31.25;7.32;;;;;;;9.31;100.00;101499.84;5012192;28;20504;-61
2023/01/05 02:13:50;;;;;;;30.67;6.68;;;;;;;9.63;100.00;101557.13;5012029;28;20021;-58
2023/01/05 02:16:23;;;;;;;28.08;6.32;;;;;;;9.69;100.00;101569.31;5012320;28;20026;-59
2023/01/05 02:19:20;;;;;;;32.03;6.85;;;;;;;9.66;100.00;101567.56;5012205;28;20057;-62
2023/01/05 02:21:48;;;;;;;35.40;6.85;;;;;;;9.60;100.00;101573.78;5010849;28;20446;-59
2023/01/05 02:24:41;;;;;;;32.45;6.53;;;;;;;9.60;100.00;101565.06;4994204;28;20397;-60
2023/01/05 02:27:27;;;;;;;27.80;6.47;;;;;;;9.54;100.00;101552.88;5012045;28;20358;-59
2023/01/05 02:30:09;;;;;;;30.17;6.05;;;;;;;9.49;100.00;101562.59;5011719;28;20049;-63
2023/01/05 02:32:56;;;;;;;29.33;6.85;;;;;;;9.55;100.00;101556.38;4994282;28;20038;-62
2023/01/05 02:35:53;;;;;;;23.13;5.65;;;;;;;9.57;100.00;101562.50;5011641;28;20065;-61
2023/01/05 02:38:26;;;;;;;28.00;6.75;;;;;;;9.22;100.00;101501.78;5011425;28;20068;-60
2023/01/05 02:40:55;;;;;;;30.08;7.95;;;;;;;9.17;100.00;101498.31;4994527;28;20030;-61
2023/01/05 02:43:21;;;;;;;28.48;6.25;;;;;;;9.51;100.00;101545.06;4993791;28;20037;-60
2023/01/05 02:45:47;;;;;;;33.35;7.18;;;;;;;9.60;100.00;101559.81;5011636;28;20041;-60
2023/01/05 02:48:12;;;;;;;38.03;7.30;;;;;;;9.38;100.00;101524.25;5011578;28;20493;-62
2023/01/05 02:50:43;;;;;;;34.35;6.35;;;;;;;9.28;100.00;101493.78;5011606;28;20072;-56
2023/01/05 02:53:17;;;;;;;33.53;7.45;;;;;;;9.69;100.00;101575.41;4994601;28;20040;-60
2023/01/05 02:56:15;;;;;;;29.50;6.95;;;;;;;9.72;100.00;101553.47;5011802;28;20034;-62
2023/01/05 02:59:22;;;;;;;26.77;5.40;;;;;;;9.77;100.00;101575.28;5006585;28;20077;-59
2023/01/05 03:01:52;;;;;;;35.38;6.70;;;;;;;9.85;100.00;101570.75;4967624;28;20046;-59
2023/01/05 03:04:21;;;;;;;35.72;7.65;;;;;;;9.91;100.00;101560.13;5011883;28;20210;-59
2023/01/05 03:07:04;;;;;;;30.50;6.30;;;;;;;9.33;100.00;101442.03;4994056;28;20052;-61
2023/01/05 03:09:37;;;;;;;31.88;6.35;;;;;;;9.77;100.00;101523.56;4994006;28;20037;-63
2023/01/05 03:14:58;;;;;;;28.02;6.13;;;;;;;10.00;100.00;101559.97;5000762;28;20212;-59
2023/01/05 03:17:44;;;;;;;25.65;6.22;;;;;;;9.98;100.00;101570.50;4997681;28;20408;-61
2023/01/05 03:20:12;;;;;;;37.70;7.78;;;;;;;9.70;100.00;101513.19;4981564;28;20041;-58
2023/01/05 03:36:51;;;;;;;27.27;6.78;;;;;;;10.11;100.00;101600.97;5015088;28;20136;-60
2023/01/05 03:39:18;;;;;;;32.67;7.25;;;;;;;9.93;100.00;101547.81;4997583;28;20488;-60
2023/01/05 03:41:43;;;;;;;28.75;6.03;;;;;;;9.77;100.00;101518.31;4997409;28;20501;-62
2023/01/05 03:44:09;;;;;;;27.80;6.70;;;;;;;10.01;100.00;101569.59;4997615;28;20034;-59
2023/01/05 03:46:34;;;;;;;36.65;7.70;;;;;;;9.84;100.00;101545.34;4997190;28;20464;-58
2023/01/05 03:48:59;;;;;;;32.03;7.30;;;;;;;10.04;100.00;101577.44;5014865;28;20053;-61
2023/01/05 03:51:25;;;;;;;32.90;7.35;;;;;;;10.04;100.00;101596.69;5014982;28;20037;-60
2023/01/05 03:53:50;;;;;;;26.85;6.20;;;;;;;9.91;100.00;101573.28;5014784;28;20040;-61
2023/01/05 03:56:15;;;;;;;36.30;8.05;;;;;;;10.06;100.00;101597.53;5014786;28;20030;-62
2023/01/05 03:58:40;;;;;;;25.90;5.85;;;;;;;10.08;100.00;101590.50;5014588;28;20055;-62
2023/01/05 04:01:07;;;;;;;27.08;6.97;;;;;;;9.75;100.00;101532.38;5013882;28;20455;-59
2023/01/05 04:03:32;;;;;;;31.63;7.85;;;;;;;9.77;100.00;101534.09;5013972;28;20116;-60
2023/01/05 04:05:58;;;;;;;36.88;7.20;;;;;;;9.83;100.00;101539.25;5012865;28;20025;-60
2023/01/05 04:08:23;;;;;;;32.65;7.05;;;;;;;10.12;100.00;101589.53;5014518;28;20055;-59
2023/01/05 04:10:52;;;;;;;29.25;7.30;;;;;;;9.77;100.00;101534.09;4996589;28;20046;-62
2023/01/05 04:13:17;;;;;;;33.30;7.50;;;;;;;9.77;100.00;101530.59;5013953;28;20508;-64
2023/01/05 04:15:42;;;;;;;33.13;7.68;;;;;;;9.76;100.00;101534.09;5014635;28;20030;-60
2023/01/05 04:18:08;;;;;;;31.08;6.65;;;;;;;9.81;100.00;101548.91;5014749;28;20030;-59
2023/01/05 04:20:33;;;;;;;31.17;6.95;;;;;;;9.74;100.00;101530.66;5013692;28;20552;-62
2023/01/05 04:22:58;;;;;;;32.65;7.10;;;;;;;10.04;100.00;101598.47;5013705;28;20038;-63
2023/01/05 04:25:24;;;;;;;33.50;7.40;;;;;;;9.70;100.00;101532.47;5013421;28;20030;-59
2023/01/05 04:27:49;;;;;;;30.23;6.82;;;;;;;10.05;100.00;101592.31;5012821;28;20042;-62
2023/01/05 04:30:14;;;;;;;36.22;7.85;;;;;;;10.08;100.00;101616.78;5013926;28;20030;-62
2023/01/05 04:32:40;;;;;;;30.83;7.07;;;;;;;10.07;100.00;101591.38;5013727;28;20042;-60
2023/01/05 04:35:05;;;;;;;29.90;7.43;;;;;;;9.77;100.00;101547.25;5014098;28;20365;-62
2023/01/05 04:37:30;;;;;;;34.10;7.28;;;;;;;10.06;100.00;101599.31;5012797;28;20471;-59
2023/01/05 04:39:56;;;;;;;30.83;5.95;;;;;;;10.06;100.00;101602.81;5013997;28;20057;-60
2023/01/05 04:42:21;;;;;;;32.58;7.13;;;;;;;10.04;100.00;101601.09;4979875;28;20044;-63
2023/01/05 04:44:46;;;;;;;31.02;6.32;;;;;;;9.72;100.00;101542.97;5013601;28;20118;-61
2023/01/05 04:47:12;;;;;;;37.10;8.63;;;;;;;10.06;100.00;101615.97;5013335;28;20500;-59
2023/01/05 04:49:37;;;;;;;28.50;7.10;;;;;;;9.76;100.00;101568.28;5013764;28;20442;-59
2023/01/05 04:52:02;;;;;;;26.20;6.45;;;;;;;9.83;100.00;101567.28;5013652;28;20026;-61
2023/01/05 04:54:28;;;;;;;31.27;7.30;;;;;;;10.09;100.00;101615.91;5013646;28;20111;-60
2023/01/05 04:56:53;;;;;;;36.60;7.65;;;;;;;10.10;100.00;101622.00;5013842;28;20034;-60
2023/01/05 04:59:18;;;;;;;34.97;7.55;;;;;;;10.06;100.00;101608.06;5013397;28;20449;-62
2023/01/05 05:01:44;;;;;;;32.45;6.97;;;;;;;10.12;100.00;101622.88;4996091;28;20046;-63
2023/01/05 05:04:09;;;;;;;37.30;7.88;;;;;;;10.06;100.00;101610.69;4995995;28;20048;-60
2023/01/05 05:06:34;;;;;;;28.77;6.20;;;;;;;10.14;100.00;101621.97;5013760;28;20508;-59
2023/01/05 05:09:00;;;;;;;35.65;7.88;;;;;;;9.83;100.00;101576.06;5013444;28;20038;-61
2023/01/05 05:11:25;;;;;;;35.75;8.27;;;;;;;10.16;100.00;101637.72;5011942;28;20335;-62
2023/01/05 05:13:50;;;;;;;33.80;7.07;;;;;;;9.83;100.00;101577.81;5013261;28;20600;-60
2023/01/05 05:16:16;;;;;;;31.35;7.93;;;;;;;9.76;100.00;101574.41;5013111;28;20034;-61
2023/01/05 05:18:41;;;;;;;34.65;7.60;;;;;;;9.76;100.00;101576.16;5011902;28;20038;-62
2023/01/05 05:21:06;;;;;;;33.95;6.70;;;;;;;9.71;100.00;101571.00;5012881;28;20041;-62
2023/01/05 05:23:32;;;;;;;32.75;6.80;;;;;;;10.10;100.00;101635.16;5013105;28;20073;-60
2023/01/05 05:25:57;;;;;;;33.70;6.28;;;;;;;9.67;100.00;101560.56;5012955;28;20072;-61
2023/01/05 05:28:26;;;;;;;37.90;8.38;;;;;;;10.07;100.00;101635.22;5012946;28;20118;-59
2023/01/05 05:30:55;;;;;;;30.33;6.50;;;;;;;9.97;100.00;101616.13;5011592;28;20038;-59
2023/01/05 05:33:22;;;;;;;39.65;7.40;;;;;;;10.10;100.00;101643.06;4995276;28;20090;-61
2023/01/05 05:35:47;;;;;;;37.33;7.47;;;;;;;10.12;100.00;101649.19;4995144;28;20041;-60
2023/01/05 05:38:13;;;;;;;36.30;9.30;;;;;;;9.41;100.00;101535.59;5012952;28;20034;-62
2023/01/05 05:40:38;;;;;;;34.53;8.15;;;;;;;9.79;100.00;101605.91;5012759;28;20044;-61
2023/01/05 05:43:03;;;;;;;36.85;7.97;;;;;;;10.08;100.00;101664.13;5012643;28;20038;-58
2023/01/05 05:45:28;;;;;;;34.78;7.82;;;;;;;10.09;100.00;101654.50;5012561;28;20441;-59
2023/01/05 05:47:54;;;;;;;27.77;6.68;;;;;;;10.01;100.00;101649.34;5012584;28;20469;-62
2023/01/05 05:50:19;;;;;;;37.72;7.28;;;;;;;9.73;100.00;101599.88;5012680;28;20493;-62
2023/01/05 05:52:44;;;;;;;36.92;7.55;;;;;;;9.92;100.00;101640.75;5012228;28;20477;-61
2023/01/05 05:55:10;;;;;;;32.30;6.80;;;;;;;9.92;100.00;101640.75;5012163;28;20460;-60
2023/01/05 05:57:35;;;;;;;34.28;6.50;;;;;;;10.07;100.00;101669.41;5011145;28;20041;-59
2023/01/05 06:00:01;;;;;;;37.00;8.40;;;;;;;9.83;100.00;101633.91;5012364;28;20034;-61
2023/01/05 06:02:26;;;;;;;32.13;7.00;;;;;;;10.14;100.00;101678.97;5010626;28;20063;-60
2023/01/05 06:04:51;;;;;;;33.00;7.32;;;;;;;9.86;100.00;101631.22;5011549;28;20088;-58
2023/01/05 06:07:17;;;;;;;27.65;6.80;;;;;;;10.16;100.00;101682.44;5012457;28;20038;-62
2023/01/05 06:09:42;;;;;;;30.35;7.93;;;;;;;10.12;100.00;101692.16;5012115;28;20033;-61
2023/01/05 06:12:07;;;;;;;33.20;7.38;;;;;;;9.80;100.00;101636.59;5012630;28;20033;-59
2023/01/05 06:14:33;;;;;;;31.73;6.45;;;;;;;10.11;100.00;101694.78;5012107;28;20088;-60
2023/01/05 06:16:59;;;;;;;33.53;6.85;;;;;;;10.01;100.00;101690.59;5012290;28;20037;-61
2023/01/05 06:19:24;;;;;;;26.92;6.72;;;;;;;10.01;100.00;101715.09;5012137;28;20038;-62
2023/01/05 06:21:50;;;;;;;36.53;7.35;;;;;;;9.53;100.00;101632.63;4994486;28;20037;-61
2023/01/05 06:24:15;;;;;;;33.20;6.78;;;;;;;10.00;100.00;101709.88;4994463;28;20040;-59
2023/01/05 06:26:40;;;;;;;25.20;6.30;;;;;;;9.99;100.00;101703.75;4994623;28;20033;-62
2023/01/05 06:29:06;;;;;;;36.42;7.88;;;;;;;9.68;100.00;101641.16;5011973;28;20465;-59
2023/01/05 06:31:31;;;;;;;28.20;6.90;;;;;;;9.85;100.00;101671.56;5011285;28;20473;-61
2023/01/05 06:33:56;;;;;;;29.88;7.03;;;;;;;9.59;100.00;101644.81;5012031;28;20485;-61
2023/01/05 06:36:22;;;;;;;35.50;6.63;;;;;;;9.71;100.00;101667.41;5011875;28;20037;-60
2023/01/05 06:38:47;;;;;;;26.85;6.60;;;;;;;10.10;100.00;101741.25;5011741;28;20088;-59
2023/01/05 06:41:12;;;;;;;28.88;6.13;;;;;;;10.07;100.00;101737.81;4995956;28;20034;-59
2023/01/05 06:43:38;;;;;;;33.10;6.88;;;;;;;10.05;100.00;101729.09;4992311;28;20121;-61
2023/01/05 06:46:03;;;;;;;31.55;6.10;;;;;;;10.03;100.00;101734.38;4993194;28;20030;-60
2023/01/05 06:48:29;;;;;;;30.83;6.88;;;;;;;10.07;100.00;101732.53;5014224;28;20112;-61
2023/01/05 06:50:54;;;;;;;39.88;6.65;;;;;;;9.90;100.00;101729.31;5016074;28;20128;-63
2023/01/05 06:53:19;;;;;;;35.30;6.35;;;;;;;10.05;100.00;101744.88;5016226;28;20034;-59
2023/01/05 06:55:45;;;;;;;34.10;7.20;;;;;;;9.86;100.00;101718.00;5015386;28;20041;-61
2023/01/05 06:58:10;;;;;;;31.27;7.00;;;;;;;9.96;100.00;101737.97;5012079;28;20050;-61
2023/01/05 07:00:35;;;;;;;26.10;5.82;;;;;;;9.71;100.00;101697.19;5015468;28;20029;-62
2023/01/05 07:03:01;;;;;;;38.05;7.57;;;;;;;9.99;100.00;101751.09;5015651;28;20050;-62
2023/01/05 07:05:26;;;;;;;29.70;7.00;;;;;;;9.61;100.00;101687.69;5015083;28;20128;-61
2023/01/05 07:07:51;;;;;;;29.55;6.57;;;;;;;9.49;100.00;101690.50;5015102;28;20042;-61
2023/01/05 07:10:17;;;;;;;30.92;8.10;;;;;;;9.77;100.00;101759.34;5015553;28;20045;-62
2023/01/05 07:12:42;;;;;;;35.65;7.13;;;;;;;9.66;100.00;101756.84;5015058;28;20038;-61
2023/01/05 07:15:09;;;;;;;36.25;6.35;;;;;;;9.51;100.00;101747.44;5015521;28;20521;-61
2023/01/05 07:17:35;;;;;;;32.80;5.93;;;;;;;9.54;100.00;101762.28;4985774;28;20050;-60
2023/01/05 07:20:01;;;;;;;32.38;7.97;;;;;;;9.46;100.00;101758.88;4978009;28;20034;-58
2023/01/05 07:22:27;;;;;;;34.80;7.53;;;;;;;9.29;100.00;101753.84;4961981;28;20450;-62
2023/01/05 07:24:52;;;;;;;32.85;7.00;;;;;;;8.90;100.00;101686.91;5002168;28;20040;-61
2023/01/05 07:27:17;;;;;;;36.28;7.60;;;;;;;9.30;100.00;101754.72;5014084;28;20042;-59
2023/01/05 07:29:43;;;;;;;34.47;8.13;;;;;;;8.93;100.00;101697.38;5014755;28;20080;-57
2023/01/05 07:32:08;;;;;;;38.20;7.70;;;;;;;9.22;100.00;101764.47;5014644;28;20096;-60
2023/01/05 07:34:33;;;;;;;36.67;7.28;;;;;;;9.17;100.00;101774.13;4997150;28;20100;-60
2023/01/05 07:36:59;;;;;;;35.28;6.65;;;;;;;9.11;100.00;101758.47;5014675;28;20034;-62
2023/01/05 07:39:24;;;;;;;31.48;7.72;;;;;;;9.18;100.00;101776.75;4997263;28;20485;-60
2023/01/05 07:41:49;;;;;;;34.58;7.68;;;;;;;9.09;100.00;101770.72;5014231;28;20103;-61
2023/01/05 07:44:15;;;;;;;36.30;7.95;;;;;;;9.08;100.00;101774.25;5013610;28;20132;-61
2023/01/05 07:46:40;;;;;;;35.47;7.45;;;;;;;8.76;100.00;101722.94;5013463;28;20046;-58
2023/01/05 07:49:05;;;;;;;35.20;7.32;;;;;;;8.92;100.00;101763.03;5013668;28;20065;-61
2023/01/05 07:51:31;;;;;;;38.40;9.10;;;;;;;8.92;100.00;101768.28;5014021;28;20041;-61
2023/01/05 07:53:56;;;;;;;33.58;8.25;;;;;;;9.00;100.00;101779.56;5013270;28;20034;-61
2023/01/05 07:56:22;;;;;;;33.33;7.20;;;;;;;8.92;100.00;101790.19;5013838;28;20067;-62
2023/01/05 07:58:47;;;;;;;37.35;7.68;;;;;;;8.99;100.00;101788.34;5013232;28;20125;-61
2023/01/05 08:01:14;;;;;;;36.90;7.47;;;;;;;9.04;100.00;101794.44;5012646;28;20033;-61
2023/01/05 08:03:40;;;;;;;38.35;7.57;;;;;;;9.10;100.00;101796.13;4995509;28;20087;-60
2023/01/05 08:06:07;;;;;;;36.03;7.15;;;;;;;9.17;100.00;101796.00;5013427;28;20389;-63
2023/01/05 08:08:33;;;;;;;34.88;7.88;;;;;;;9.23;100.00;101795.94;4995840;28;20030;-63
2023/01/05 08:10:58;;;;;;;42.97;7.93;;;;;;;9.25;100.00;101785.44;4995000;28;20091;-60
2023/01/05 08:16:07;;;;;;;37.70;8.05;;;;;;;9.32;100.00;101806.34;4998245;28;20104;-61
2023/01/05 08:18:33;;;;;;;37.80;7.70;;;;;;;9.17;100.00;101801.28;5012888;28;20061;-60
2023/01/05 08:21:03;;;;;;;34.42;7.13;;;;;;;8.99;100.00;101773.44;5012520;28;20493;-64
2023/01/05 08:23:29;;;;;;;34.13;7.25;;;;;;;8.98;100.00;101769.09;4995800;28;20044;-60
2023/01/05 08:25:54;;;;;;;26.83;6.20;;;;;;;9.37;100.00;101820.28;5012853;28;20029;-62
2023/01/05 08:28:20;;;;;;;29.85;7.15;;;;;;;9.44;100.00;101811.47;5012701;28;20041;-60
2023/01/05 08:30:46;;;;;;;33.90;6.78;;;;;;;9.50;100.00;101826.28;5012561;28;20042;-60
2023/01/05 08:33:12;;;;;;;35.83;7.40;;;;;;;9.60;100.00;101839.28;4994954;28;20179;-61
2023/01/05 08:35:41;;;;;;;30.92;7.15;;;;;;;9.58;100.00;101841.06;5012521;28;20112;-60
2023/01/05 08:38:07;;;;;;;36.55;8.05;;;;;;;9.18;100.00;101757.50;4995232;28;20030;-61
2023/01/05 08:40:32;;;;;;;39.63;7.30;;;;;;;9.35;100.00;101787.91;5011979;28;20140;-62
2023/01/05 08:42:57;;;;;;;28.48;6.82;;;;;;;9.71;100.00;101846.19;5012282;28;20042;-62
2023/01/05 08:45:23;;;;;;;30.23;6.63;;;;;;;9.34;100.00;101796.69;5012531;28;20555;-59
2023/01/05 08:47:48;;;;;;;35.97;8.32;;;;;;;9.41;100.00;101792.22;5012215;28;20481;-60
2023/01/05 08:50:13;;;;;;;30.63;6.20;;;;;;;9.84;100.00;101863.50;5012908;28;20057;-60
2023/01/05 08:52:39;;;;;;;28.90;6.43;;;;;;;9.41;100.00;101786.97;5012467;28;20033;-60
2023/01/05 08:55:06;;;;;;;32.45;5.85;;;;;;;9.91;100.00;101860.81;5012041;28;20057;-60
2023/01/05 08:57:32;;;;;;;29.10;6.38;;;;;;;9.57;100.00;101802.50;5012760;28;20040;-61
2023/01/05 08:59:58;;;;;;;30.98;6.70;;;;;;;9.98;100.00;101880.00;4994605;28;20034;-59
2023/01/05 09:02:23;;;;;;;26.67;6.50;;;;;;;9.59;100.00;101802.50;5008496;28;20042;-63
2023/01/05 09:04:48;;;;;;;38.05;7.32;;;;;;;9.50;100.00;101785.09;5012006;28;20058;-59
2023/01/05 09:07:14;;;;;;;27.98;6.40;;;;;;;9.57;100.00;101783.28;5012127;28;20092;-59
2023/01/05 09:09:39;;;;;;;26.92;6.40;;;;;;;9.75;100.00;101795.31;4962985;28;20038;-59
2023/01/05 09:12:05;;;;;;;36.30;6.88;;;;;;;10.19;100.00;101884.97;4992520;28;20081;-60
2023/01/05 09:14:30;;;;;;;30.80;6.97;;;;;;;9.59;100.00;101766.59;4992569;28;20038;-59
2023/01/05 09:16:55;;;;;;;39.70;7.72;;;;;;;9.80;100.00;101810.13;4974915;28;20042;-61
2023/01/05 09:19:21;;;;;;;26.38;6.82;;;;;;;10.21;100.00;101874.47;4992317;28;20475;-62
2023/01/05 09:21:46;;;;;;;32.85;7.53;;;;;;;9.88;100.00;101817.88;4988596;28;20486;-60
2023/01/05 09:24:12;;;;;;;32.67;6.90;;;;;;;10.20;100.00;101875.34;5011334;28;20064;-63
2023/01/05 09:26:37;;;;;;;30.75;7.25;;;;;;;9.80;100.00;101796.09;4994235;28;20038;-61
2023/01/05 09:29:03;;;;;;;29.88;6.60;;;;;;;10.40;100.00;101882.03;5012004;28;20141;-58
2023/01/05 09:31:28;;;;;;;30.35;6.13;;;;;;;10.00;100.00;101801.94;5011477;28;20046;-63
2023/01/05 09:33:55;;;;;;;31.52;7.43;;;;;;;10.45;100.00;101896.00;4977943;28;20066;-61
2023/01/05 09:36:21;;;;;;;34.92;7.65;;;;;;;10.48;100.00;101903.84;5011904;28;20109;-61
2023/01/05 09:38:50;;;;;;;35.20;6.72;;;;;;;10.49;100.00;101902.09;4993533;28;20470;-63
2023/01/05 09:41:21;;;;;;;29.20;6.55;;;;;;;10.51;100.00;101909.06;5010704;28;20034;-60
2023/01/05 09:43:49;;;;;;;28.45;6.18;;;;;;;10.56;100.00;101903.75;5011678;28;20038;-61
2023/01/05 09:46:18;;;;;;;25.85;6.22;;;;;;;10.71;100.00;101908.78;5011080;28;20115;-60
2023/01/05 09:48:46;;;;;;;27.67;6.43;;;;;;;10.47;100.00;101867.91;5010455;28;20045;-64
2023/01/05 09:51:12;;;;;;;30.63;7.13;;;;;;;10.82;100.00;101924.41;5009354;28;20127;-59
2023/01/05 09:53:38;;;;;;;22.52;6.15;;;;;;;10.46;100.00;101844.22;5010222;28;20088;-59
2023/01/05 09:56:04;;;;;;;33.42;8.10;;;;;;;10.96;100.00;101936.44;5009407;28;20695;-61
2023/01/05 09:58:34;;;;;;;33.97;8.20;;;;;;;10.97;100.00;101913.63;5009602;28;20040;-60
2023/01/05 10:01:08;;;;;;;32.85;7.13;;;;;;;11.15;100.00;101937.00;5007852;28;20122;-61
2023/01/05 10:03:37;;;;;;;32.38;7.70;;;;;;;10.85;100.00;101890.13;5010014;28;20496;-59
2023/01/05 10:06:05;;;;;;;33.78;7.88;;;;;;;11.25;100.00;101952.63;4991947;28;20119;-59
2023/01/05 10:08:39;;;;;;;31.00;7.13;;;;;;;10.96;100.00;101889.03;4986343;28;20044;-59
2023/01/05 10:14:15;;;;;;;33.22;8.15;;;;;;;11.42;100.00;101948.81;4995514;28;20083;-59
2023/01/05 10:16:43;;;;;;;31.42;7.13;;;;;;;11.35;100.00;101958.63;4993457;28;20109;-59
2023/01/05 10:19:16;;;;;;;37.15;7.75;;;;;;;11.32;100.00;101951.63;5010423;28;20040;-59
2023/01/05 10:21:50;;;;;;;26.20;7.45;;;;;;;11.36;100.00;101957.72;4992511;28;20103;-59
2023/01/05 10:24:22;;;;;;;32.55;7.68;;;;;;;11.43;100.00;101951.44;5010126;28;20041;-59
2023/01/05 10:27:06;;;;;;;29.10;7.70;;;;;;;11.40;100.00;101956.78;5018043;28;20079;-59
2023/01/05 10:29:41;;;;;;;34.78;8.32;;;;;;;11.41;100.00;101955.88;5012642;28;20037;-59
2023/01/05 10:32:15;;;;;;;35.30;8.27;;;;;;;11.45;100.00;101954.03;4997665;28;20100;-60
2023/01/05 10:34:57;;;;;;;34.90;7.90;;;;;;;11.51;100.00;101951.28;5021331;28;20030;-60
2023/01/05 10:37:32;;;;;;;30.33;6.65;;;;;;;11.50;100.00;101949.56;5024977;28;20025;-60
2023/01/05 10:40:08;;;;;;;35.90;8.02;;;;;;;11.51;100.00;101933.72;5014661;28;20029;-59
2023/01/05 10:42:34;;;;;;;30.60;7.32;;;;;;;11.39;100.00;101944.47;5020591;28;20380;-59
2023/01/05 10:45:05;;;;;;;32.42;6.53;;;;;;;10.89;100.00;101871.59;5019225;28;20036;-59
2023/01/05 10:47:31;;;;;;;;;;;;;;;11.29;100.00;101948.19;5009503;28;20029;-59
2023/01/05 10:49:57;;;;;;;36.17;7.22;;;;;;;10.88;100.00;101879.53;4996241;28;19928;-58
2023/01/05 10:52:22;;;;;;;34.47;7.00;;;;;;;11.19;100.00;101934.28;5007470;28;20043;-59
2023/01/05 10:55:12;;;;;;;32.80;7.22;;;;;;;11.31;100.00;101951.66;5019625;28;20472;-59
2023/01/05 10:57:39;;;;;;;35.70;7.50;;;;;;;11.04;100.00;101875.72;4984050;28;20053;-60
2023/01/05 11:00:17;;;;;;;33.85;6.90;;;;;;;10.92;100.00;101868.91;4979669;28;20053;-59
2023/01/05 11:02:52;;;;;;;40.78;8.30;;;;;;;11.24;100.00;101960.56;5003885;28;20401;-59
2023/01/05 11:05:36;;;;;;;46.58;8.60;;;;;;;11.19;100.00;101949.22;5005321;28;20057;-59
2023/01/05 11:08:04;;;;;;;35.88;7.65;;;;;;;11.13;100.00;101946.69;5012947;28;20029;-60
2023/01/05 11:10:33;;;;;;;36.05;7.20;;;;;;;10.99;100.00;101935.53;5005757;28;20057;-60
2023/01/05 11:13:04;;;;;;;37.10;7.88;;;;;;;10.96;100.00;101936.44;5021061;28;20116;-60
2023/01/05 11:15:34;;;;;;;29.17;6.90;;;;;;;10.94;100.00;101940.88;5014613;28;20120;-60
2023/01/05 11:17:59;;;;;;;36.30;7.57;;;;;;;10.84;100.00;101935.78;5003204;28;20039;-59
2023/01/05 11:20:26;;;;;;;32.42;7.60;;;;;;;10.74;100.00;101904.31;5006613;28;20113;-59
2023/01/05 11:22:52;;;;;;;27.90;7.07;;;;;;;10.87;100.00;101935.72;5002808;28;20029;-59
2023/01/05 11:25:17;;;;;;;27.77;6.85;;;;;;;10.89;100.00;101932.16;5011287;28;20095;-59
2023/01/05 11:27:43;;;;;;;32.55;7.18;;;;;;;10.88;100.00;101921.66;5011237;28;20386;-59
2023/01/05 11:30:18;;;;;;;28.33;6.63;;;;;;;10.47;100.00;101843.34;5009108;28;20049;-60
2023/01/05 11:32:44;;;;;;;29.15;6.53;;;;;;;10.53;100.00;101853.78;5023240;28;20045;-60
2023/01/05 11:35:30;;;;;;;34.47;7.47;;;;;;;10.78;100.00;101901.63;5018265;28;20096;-60
2023/01/05 11:37:56;;;;;;;36.67;8.25;;;;;;;10.79;100.00;101890.22;4988350;28;20036;-59
2023/01/05 11:40:25;;;;;;;32.63;7.75;;;;;;;10.48;100.00;101842.44;5024846;28;20061;-59
2023/01/05 11:42:50;;;;;;;34.38;7.65;;;;;;;10.46;100.00;101842.47;5027287;28;20038;-59
2023/01/05 11:45:21;;;;;;;30.63;7.60;;;;;;;10.49;100.00;101852.94;5017484;28;20112;-60
2023/01/05 11:47:49;;;;;;;32.17;7.20;;;;;;;10.38;100.00;101833.84;5007606;28;20025;-59
2023/01/05 11:50:27;;;;;;;28.08;7.30;;;;;;;10.66;100.00;101885.13;5023398;28;20294;-59
2023/01/05 11:52:55;;;;;;;37.50;8.55;;;;;;;11.02;100.00;101915.28;5025898;28;20104;-60